sensor_id;sensor_type;location;lat;lon;timestamp;P1;durP1;ratioP1;P2;durP2;ratioP2
50689;SDS011;54375;48.298;11.238;2023-03-01T00:05:44;35.13;;;18.35;;
50689;SDS011;54375;48.298;11.238;2023-03-01T00:20:50;35.35;;;18.17;;
50689;SDS011;54375;48.298;11.238;2023-03-01T00:35:53;34.15;;;19.63;;
50689;SDS011;54375;48.298;11.238;2023-03-01T00:50:55;33.70;;;18.80;;
50689;SDS011;54375;48.298;11.238;2023-03-01T01:05:59;34.47;;;18.48;;
50689;SDS011;54375;48.298;11.238;2023-03-01T01:21:04;32.47;;;18.17;;
50689;SDS011;54375;48.298;11.238;2023-03-01T01:36:08;34.45;;;18.80;;
50689;SDS011;54375;48.298;11.238;2023-03-01T01:51:11;30.80;;;17.85;;
50689;SDS011;54375;48.298;11.238;2023-03-01T02:06:19;37.42;;;20.05;;
50689;SDS011;54375;48.298;11.238;2023-03-01T02:21:32;32.42;;;18.48;;
50689;SDS011;54375;48.298;11.238;2023-03-01T02:36:44;33.65;;;19.17;;
50689;SDS011;54375;48.298;11.238;2023-03-01T02:51:54;34.25;;;18.90;;
50689;SDS011;54375;48.298;11.238;2023-03-01T03:07:06;30.73;;;17.50;;
50689;SDS011;54375;48.298;11.238;2023-03-01T03:22:08;30.70;;;18.45;;
50689;SDS011;54375;48.298;11.238;2023-03-01T03:37:10;31.83;;;18.33;;
50689;SDS011;54375;48.298;11.238;2023-03-01T03:52:13;34.30;;;17.00;;
50689;SDS011;54375;48.298;11.238;2023-03-01T04:07:16;32.10;;;18.20;;
50689;SDS011;54375;48.298;11.238;2023-03-01T04:22:18;35.95;;;19.25;;
50689;SDS011;54375;48.298;11.238;2023-03-01T04:37:21;31.85;;;17.45;;
50689;SDS011;54375;48.298;11.238;2023-03-01T04:52:23;33.78;;;18.48;;
50689;SDS011;54375;48.298;11.238;2023-03-01T05:07:25;36.15;;;18.42;;
50689;SDS011;54375;48.298;11.238;2023-03-01T05:22:28;36.60;;;18.45;;
50689;SDS011;54375;48.298;11.238;2023-03-01T05:37:30;39.47;;;18.88;;
50689;SDS011;54375;48.298;11.238;2023-03-01T05:52:32;33.53;;;17.15;;
50689;SDS011;54375;48.298;11.238;2023-03-01T06:07:35;39.25;;;18.20;;
50689;SDS011;54375;48.298;11.238;2023-03-01T06:22:37;38.17;;;18.33;;
50689;SDS011;54375;48.298;11.238;2023-03-01T06:37:40;38.08;;;18.88;;
50689;SDS011;54375;48.298;11.238;2023-03-01T06:52:43;37.53;;;18.60;;
50689;SDS011;54375;48.298;11.238;2023-03-01T07:07:45;33.40;;;16.88;;
50689;SDS011;54375;48.298;11.238;2023-03-01T07:22:47;33.80;;;17.17;;
50689;SDS011;54375;48.298;11.238;2023-03-01T07:37:50;35.22;;;18.70;;
50689;SDS011;54375;48.298;11.238;2023-03-01T07:52:53;38.15;;;19.42;;
50689;SDS011;54375;48.298;11.238;2023-03-01T08:07:56;33.92;;;17.85;;
50689;SDS011;54375;48.298;11.238;2023-03-01T08:22:58;37.92;;;19.08;;
50689;SDS011;54375;48.298;11.238;2023-03-01T08:38:01;40.42;;;21.25;;
50689;SDS011;54375;48.298;11.238;2023-03-01T08:53:03;41.05;;;21.48;;
50689;SDS011;54375;48.298;11.238;2023-03-01T09:08:05;37.50;;;22.15;;
50689;SDS011;54375;48.298;11.238;2023-03-01T09:23:08;41.50;;;22.83;;
50689;SDS011;54375;48.298;11.238;2023-03-01T09:38:10;39.92;;;21.75;;
50689;SDS011;54375;48.298;11.238;2023-03-01T09:53:13;35.58;;;21.08;;
50689;SDS011;54375;48.298;11.238;2023-03-01T10:23:39;33.53;;;20.87;;
50689;SDS011;54375;48.298;11.238;2023-03-01T10:38:49;33.40;;;21.00;;
50689;SDS011;54375;48.298;11.238;2023-03-01T10:53:52;37.30;;;21.63;;
50689;SDS011;54375;48.298;11.238;2023-03-01T11:08:54;33.83;;;22.30;;
50689;SDS011;54375;48.298;11.238;2023-03-01T11:23:57;36.25;;;21.20;;
50689;SDS011;54375;48.298;11.238;2023-03-01T11:39:03;33.72;;;21.30;;
50689;SDS011;54375;48.298;11.238;2023-03-01T11:54:20;33.53;;;20.98;;
50689;SDS011;54375;48.298;11.238;2023-03-01T12:09:46;33.83;;;20.85;;
50689;SDS011;54375;48.298;11.238;2023-03-01T12:25:06;34.30;;;20.95;;
50689;SDS011;54375;48.298;11.238;2023-03-01T12:40:23;33.47;;;21.23;;
50689;SDS011;54375;48.298;11.238;2023-03-01T12:55:36;30.17;;;19.58;;
50689;SDS011;54375;48.298;11.238;2023-03-01T13:10:41;29.92;;;18.95;;
50689;SDS011;54375;48.298;11.238;2023-03-01T13:26:02;32.75;;;19.67;;
50689;SDS011;54375;48.298;11.238;2023-03-01T13:41:10;31.67;;;19.73;;
50689;SDS011;54375;48.298;11.238;2023-03-01T13:56:13;29.30;;;17.85;;
50689;SDS011;54375;48.298;11.238;2023-03-01T14:11:41;31.10;;;19.05;;
50689;SDS011;54375;48.298;11.238;2023-03-01T14:27:15;27.52;;;18.60;;
50689;SDS011;54375;48.298;11.238;2023-03-01T14:42:18;32.17;;;18.42;;
50689;SDS011;54375;48.298;11.238;2023-03-01T14:57:23;29.30;;;17.33;;
50689;SDS011;54375;48.298;11.238;2023-03-01T15:12:36;22.73;;;16.17;;
50689;SDS011;54375;48.298;11.238;2023-03-01T15:27:40;25.75;;;16.70;;
50689;SDS011;54375;48.298;11.238;2023-03-01T15:42:47;25.25;;;15.63;;
50689;SDS011;54375;48.298;11.238;2023-03-01T15:57:50;26.00;;;16.08;;
50689;SDS011;54375;48.298;11.238;2023-03-01T16:13:00;27.97;;;16.03;;
50689;SDS011;54375;48.298;11.238;2023-03-01T16:28:02;23.67;;;15.00;;
50689;SDS011;54375;48.298;11.238;2023-03-01T16:43:05;22.70;;;13.77;;
50689;SDS011;54375;48.298;11.238;2023-03-01T16:58:07;25.17;;;14.95;;
50689;SDS011;54375;48.298;11.238;2023-03-01T17:13:09;35.05;;;17.20;;
50689;SDS011;54375;48.298;11.238;2023-03-01T17:28:12;31.60;;;17.48;;
50689;SDS011;54375;48.298;11.238;2023-03-01T17:43:15;29.45;;;18.17;;
50689;SDS011;54375;48.298;11.238;2023-03-01T17:58:18;30.95;;;17.35;;
50689;SDS011;54375;48.298;11.238;2023-03-01T18:13:20;30.70;;;18.90;;
50689;SDS011;54375;48.298;11.238;2023-03-01T18:28:22;35.58;;;20.15;;
50689;SDS011;54375;48.298;11.238;2023-03-01T18:43:25;31.95;;;17.83;;
50689;SDS011;54375;48.298;11.238;2023-03-01T18:58:27;36.97;;;20.60;;
50689;SDS011;54375;48.298;11.238;2023-03-01T19:13:30;40.90;;;22.40;;
50689;SDS011;54375;48.298;11.238;2023-03-01T19:28:33;39.72;;;21.45;;
50689;SDS011;54375;48.298;11.238;2023-03-01T19:43:36;39.17;;;23.30;;
50689;SDS011;54375;48.298;11.238;2023-03-01T19:58:39;40.53;;;22.48;;
50689;SDS011;54375;48.298;11.238;2023-03-01T20:13:41;41.42;;;21.88;;
50689;SDS011;54375;48.298;11.238;2023-03-01T20:28:44;39.78;;;20.10;;
50689;SDS011;54375;48.298;11.238;2023-03-01T20:43:47;39.03;;;22.63;;
50689;SDS011;54375;48.298;11.238;2023-03-01T20:58:50;38.60;;;20.83;;
50689;SDS011;54375;48.298;11.238;2023-03-01T21:13:52;37.67;;;20.33;;
50689;SDS011;54375;48.298;11.238;2023-03-01T21:28:56;37.78;;;19.30;;
50689;SDS011;54375;48.298;11.238;2023-03-01T21:43:59;35.15;;;17.80;;
50689;SDS011;54375;48.298;11.238;2023-03-01T21:59:03;31.77;;;18.00;;
50689;SDS011;54375;48.298;11.238;2023-03-01T22:14:06;33.65;;;17.88;;
50689;SDS011;54375;48.298;11.238;2023-03-01T22:29:09;31.77;;;17.02;;
50689;SDS011;54375;48.298;11.238;2023-03-01T22:44:14;48.15;;;20.52;;
50689;SDS011;54375;48.298;11.238;2023-03-01T22:59:19;37.33;;;17.58;;
50689;SDS011;54375;48.298;11.238;2023-03-01T23:14:23;37.58;;;18.45;;
50689;SDS011;54375;48.298;11.238;2023-03-01T23:29:26;34.42;;;18.92;;
50689;SDS011;54375;48.298;11.238;2023-03-01T23:44:28;42.70;;;19.13;;
50689;SDS011;54375;48.298;11.238;2023-03-01T23:59:31;37.15;;;17.90;;
